PWSweather.com
Personal Weather Stations
Station Observations
SANDHURSTWX
SandhurstGB

SandhurstGB

Lat: 51.3522, Lon: -0.7739

Elevation: 272.3

Station Type: Davis VP2

Latest ConditionsUpdated 7:00:02 PM GMT Saturday, Apr 20, 2019
Currently Today's Max Today's Min Today's Average
Temperature 68.5°F20.3°C 76.6°F24.8°C 43.6°F6.4°C 61.6°F16.4°C
Dew Point 45.1°F7.3°C 49.0°F9.4°C 40.2°F4.6°C 45.0°F7.2°C
Winds Calm Calm 8.1 mph -13.0 kmh - - 2.4 mph 3.9 kmh
Wind Gusts 3.5 mph5.6 kmh 12.7 mph20.4 kmh - -
Humidity 43% 91% 32% 59%
Pressure 30.32 in1026.8 mb 30.44 in1030.8 mb 30.31 in1026.4 mb -
Hour Temp Dew Point Humidity Winds Wind Gusts Pressure Precip Precip Rate Daily Precip Total
07:00 PM 68.5°F20.3°C 45.1°F7.3°C 43% Calm Calm 3.5 mph5.6 kmh 30.32 in1026.8 mb - 0.00 in0.0 mm 0.00 in0.0 mm
06:00 PM 72.3°F22.4°C 45.3°F7.4°C 38% 2.3 mph E3.7 kmh E 6.9 mph11.1 kmh 30.31 in1026.4 mb - 0.00 in0.0 mm 0.00 in0.0 mm
05:00 PM 74.9°F23.8°C 46.2°F7.9°C 36% 4.6 mph ENE7.4 kmh ENE 8.1 mph13.0 kmh 30.32 in1026.8 mb - 0.00 in0.0 mm 0.00 in0.0 mm
04:00 PM 76.0°F24.4°C 44.8°F7.1°C 33% 6.9 mph NE11.1 kmh NE 12.7 mph20.4 kmh 30.33 in1027.1 mb - 0.00 in0.0 mm 0.00 in0.0 mm
03:00 PM 76.6°F24.8°C 44.5°F6.9°C 32% 4.6 mph NW7.4 kmh NW 5.8 mph9.3 kmh 30.34 in1027.4 mb - 0.00 in0.0 mm 0.00 in0.0 mm
02:00 PM 75.8°F24.3°C 47.0°F8.3°C 36% 3.5 mph E5.6 kmh E 5.8 mph9.3 kmh 30.37 in1028.4 mb - 0.00 in0.0 mm 0.00 in0.0 mm
01:00 PM 75.0°F23.9°C 49.0°F9.4°C 40% 2.3 mph ENE3.7 kmh ENE 2.3 mph3.7 kmh 30.39 in1029.1 mb - 0.00 in0.0 mm 0.00 in0.0 mm
12:00 PM 72.2°F22.3°C 47.8°F8.8°C 42% 3.5 mph NW5.6 kmh NW 5.8 mph9.3 kmh 30.40 in1029.5 mb - 0.00 in0.0 mm 0.00 in0.0 mm
11:00 AM 72.1°F22.3°C 48.4°F9.1°C 43% 8.1 mph E13.0 kmh E 8.1 mph13.0 kmh 30.42 in1030.1 mb - 0.00 in0.0 mm 0.00 in0.0 mm
10:00 AM 68.6°F20.3°C 48.7°F9.3°C 49% 5.8 mph NE9.3 kmh NE 10.4 mph16.7 kmh 30.42 in1030.1 mb - 0.00 in0.0 mm 0.00 in0.0 mm
09:00 AM 65.1°F18.4°C 48.5°F9.2°C 55% 1.2 mph N1.9 kmh N 2.3 mph3.7 kmh 30.43 in1030.5 mb - 0.00 in0.0 mm 0.00 in0.0 mm
08:00 AM 53.8°F12.1°C 47.7°F8.7°C 80% Calm Calm -- 30.43 in1030.5 mb - 0.00 in0.0 mm 0.00 in0.0 mm
07:00 AM 45.6°F7.6°C 43.1°F6.2°C 91% Calm Calm -- 30.44 in1030.8 mb - 0.00 in0.0 mm 0.00 in0.0 mm
06:00 AM 43.6°F6.4°C 40.9°F4.9°C 90% Calm Calm -- 30.43 in1030.5 mb - 0.00 in0.0 mm 0.00 in0.0 mm
05:00 AM 44.4°F6.9°C 40.8°F4.9°C 87% Calm Calm -- 30.43 in1030.5 mb - 0.00 in0.0 mm 0.00 in0.0 mm
04:00 AM 46.4°F8.0°C 41.5°F5.3°C 83% Calm Calm -- 30.43 in1030.5 mb - 0.00 in0.0 mm 0.00 in0.0 mm
03:00 AM 49.7°F9.8°C 43.4°F6.3°C 79% Calm Calm -- 30.43 in1030.5 mb - 0.00 in0.0 mm 0.00 in0.0 mm
02:00 AM 52.6°F11.4°C 44.9°F7.2°C 75% 3.5 mph ENE5.6 kmh ENE 3.5 mph5.6 kmh 30.43 in1030.5 mb - 0.00 in0.0 mm 0.00 in0.0 mm
01:00 AM 48.8°F9.3°C 41.6°F5.3°C 76% 2.3 mph NE3.7 kmh NE 3.5 mph5.6 kmh 30.43 in1030.5 mb - 0.00 in0.0 mm 0.00 in0.0 mm
12:00 AM 49.6°F9.8°C 40.2°F4.6°C 70% Calm Calm -- 30.43 in1030.5 mb - 0.00 in0.0 mm 0.00 in0.0 mm